If you wish to contribute or participate in the discussions about articles you are invited to join SKYbrary as a registered user

 Actions

Albert-Bray Airport

From SKYbrary Wiki

LFAQ
Airport
ICAO: LFAQ
Summary
Name Albert-Bray Airport
Region Europe
Territory France FR.gif
Location , Picardie
Serving Albert
Elevation 110.947 m
364 ft
364 ft110.947 m
Type small airport
Coordinates 49° 58' 17.51" N, 2° 41' 51.58" E
Runways
Designator Length Width Surface ROPS
9/27 1170 m3,838.583 ft
25 m82.021 ft
ASP /


METAR
Observation LFAQ 171700Z AUTO 18007KT 9999 SCT032 BKN074 BKN150 14/11 Q1009 TEMPO 4000 SHRA BKN020TCU
Station BRAY
Date/Time 17 October 2019 17:00:00
Wind direction 180°
Wind speed 07 kts
Lowest cloud amount scattered clouds
Temperature 14°C
Dew point 11°C
Humidity 82%
QNH 1009 hPa
Weather condition n/a